Saturday, November 17, 2018, 10:16 AM EST
Back to Local

KNHK, Nas Patuxent River Md

Location: Patuxent River, MD, United States Lat: 38.3
Local Time: 10:16 AM EST (15:16 GMT) Lon: -76.4
Time Zone: US/Eastern Elev: 39 ft

Show me the last for .
Show Decoded

2018-11-17 09:52 METAR KNHK 171452Z 33014KT 10SM FEW035 07/01 A3030 RMK AO2 SLP260 T00720006
                 51020 =
2018-11-17 08:52 METAR KNHK 171352Z 34009KT 10SM FEW035 06/01 A3029 RMK AO2 SLP258 T00610011 =
2018-11-17 07:52 METAR KNHK 171252Z 34007KT 10SM CLR 04/01 A3027 RMK AO2 SLP251 T00440011 =
2018-11-17 07:22 METAR KNHK 171222Z 34010KT 10SM CLR 04/01 A3025 RMK AO2 T00390006 =
2018-11-17 06:52 METAR KNHK 171152Z AUTO 34009KT 10SM CLR 03/01 A3024 RMK AO2 SLP240 T00280006
                 10039 21006 53028 =
2018-11-17 05:52 METAR KNHK 171052Z AUTO 29003KT 10SM CLR 01/00 A3021 RMK AO2 SLP230 T00110000 =
2018-11-17 04:52 METAR KNHK 170952Z AUTO 30003KT 10SM CLR 01/00 A3018 RMK AO2 SLP221 T00060000 =
2018-11-17 03:52 METAR KNHK 170852Z AUTO 30003KT 10SM CLR 01/01 A3016 RMK AO2 SLP212 T00060006
                 52014 =
2018-11-17 02:52 METAR KNHK 170752Z AUTO 24003KT 10SM CLR 00/00 A3014 RMK AO2 SLP207 T00000000 =
2018-11-17 01:52 METAR KNHK 170652Z AUTO 27003KT 10SM CLR 01/01 A3013 RMK AO2 SLP202 T00110011 =
2018-11-17 00:52 METAR KNHK 170552Z AUTO 31005KT 10SM CLR 03/01 A3011 RMK AO2 SLP197 T00330011
                 10061 20011 53014 =
2018-11-16 23:52 METAR KNHK 170452Z AUTO 33007KT 10SM CLR 06/01 A3010 RMK AO2 SLP191 T00560011
                 401110022 =
2018-11-16 22:52 METAR KNHK 170352Z 32005KT 10SM CLR 05/02 A3008 RMK AO2 SLP187 T00500017 =
2018-11-16 21:52 METAR KNHK 170252Z 33008KT 10SM CLR 06/02 A3007 RMK AO2 SLP183 T00560017 51031 =
2018-11-16 20:52 METAR KNHK 170152Z 28004KT 10SM CLR 03/02 A3004 RMK AO2 SLP173 T00280022 =
2018-11-16 19:52 METAR KNHK 170052Z 25004KT 10SM FEW280 04/02 A3001 RMK AO2 SLP163 T00390022 =
2018-11-16 18:52 METAR KNHK 162352Z 27005KT 10SM FEW280 05/02 A2998 RMK AO2 SLP152 T00500017
                 10111 20050 53022 =
2018-11-16 17:52 METAR KNHK 162252Z 26007KT 10SM FEW280 07/03 A2996 RMK AO2 SLP145 T00720028 =
2018-11-16 16:52 METAR KNHK 162152Z 26007KT 10SM FEW035 FEW280 08/03 A2993 RMK AO2 SLP135
                 T00830028 =
2018-11-16 15:52 METAR KNHK 162052Z 26012KT 10SM FEW035 FEW180 10/02 A2992 RMK AO2 SLP130
                 T01000017 53008 =
2018-11-16 14:52 METAR KNHK 161952Z 28014KT 10SM FEW035 FEW180 11/03 A2990 RMK AO2 SLP124
                 T01110028 =
2018-11-16 13:52 METAR KNHK 161852Z 26011KT 10SM FEW035 SCT180 10/03 A2989 RMK AO2 SLP121
                 T01000028 =
2018-11-16 12:52 METAR KNHK 161752Z 26015KT 10SM FEW034 SCT180 09/03 A2989 RMK AO2 SLP122
                 T00940028 10100 20022 58001 =
2018-11-16 11:52 METAR KNHK 161652Z 27013KT 10SM FEW020 09/03 A2991 RMK AO2 SLP128 T00890028 =
2018-11-16 10:52 METAR KNHK 161552Z 27011KT 10SM FEW020 08/02 A2991 RMK AO2 SLP128 T00830022 =

Support USWX by starting your Amazon purchase here.